sensor_id;sensor_type;location;lat;lon;timestamp;P1;durP1;ratioP1;P2;durP2;ratioP2
21266;SDS011;10791;53.108;18.326;2024-01-11T00:01:46;4.47;;;3.07;;
21266;SDS011;10791;53.108;18.326;2024-01-11T00:06:50;4.53;;;2.83;;
21266;SDS011;10791;53.108;18.326;2024-01-11T00:11:53;13.60;;;2.03;;
21266;SDS011;10791;53.108;18.326;2024-01-11T00:16:56;2.63;;;1.60;;
21266;SDS011;10791;53.108;18.326;2024-01-11T00:22:00;2.73;;;2.43;;
21266;SDS011;10791;53.108;18.326;2024-01-11T00:27:03;4.00;;;2.47;;
21266;SDS011;10791;53.108;18.326;2024-01-11T00:32:06;1.97;;;1.33;;
21266;SDS011;10791;53.108;18.326;2024-01-11T00:37:10;2.17;;;1.47;;
21266;SDS011;10791;53.108;18.326;2024-01-11T00:42:13;4.17;;;2.17;;
21266;SDS011;10791;53.108;18.326;2024-01-11T00:47:16;12.87;;;3.00;;
21266;SDS011;10791;53.108;18.326;2024-01-11T00:52:20;6.60;;;2.37;;
21266;SDS011;10791;53.108;18.326;2024-01-11T00:57:24;2.63;;;2.13;;
21266;SDS011;10791;53.108;18.326;2024-01-11T01:02:27;4.90;;;2.00;;
21266;SDS011;10791;53.108;18.326;2024-01-11T01:07:30;8.57;;;2.93;;
21266;SDS011;10791;53.108;18.326;2024-01-11T01:12:34;6.33;;;3.07;;
21266;SDS011;10791;53.108;18.326;2024-01-11T01:17:37;6.80;;;2.63;;
21266;SDS011;10791;53.108;18.326;2024-01-11T01:22:40;6.30;;;3.20;;
21266;SDS011;10791;53.108;18.326;2024-01-11T01:27:43;1.63;;;1.53;;
21266;SDS011;10791;53.108;18.326;2024-01-11T01:32:46;8.97;;;2.37;;
21266;SDS011;10791;53.108;18.326;2024-01-11T01:37:49;11.67;;;3.17;;
21266;SDS011;10791;53.108;18.326;2024-01-11T01:42:57;5.20;;;3.00;;
21266;SDS011;10791;53.108;18.326;2024-01-11T01:48:02;4.30;;;1.47;;
21266;SDS011;10791;53.108;18.326;2024-01-11T01:53:07;10.23;;;3.53;;
21266;SDS011;10791;53.108;18.326;2024-01-11T01:58:10;8.03;;;2.20;;
21266;SDS011;10791;53.108;18.326;2024-01-11T02:03:15;6.40;;;2.77;;
21266;SDS011;10791;53.108;18.326;2024-01-11T02:08:19;13.80;;;3.57;;
21266;SDS011;10791;53.108;18.326;2024-01-11T02:13:26;8.33;;;3.37;;
21266;SDS011;10791;53.108;18.326;2024-01-11T02:18:29;6.07;;;3.53;;
21266;SDS011;10791;53.108;18.326;2024-01-11T02:23:32;9.60;;;3.47;;
21266;SDS011;10791;53.108;18.326;2024-01-11T02:28:37;4.03;;;2.93;;
21266;SDS011;10791;53.108;18.326;2024-01-11T02:33:40;5.60;;;3.23;;
21266;SDS011;10791;53.108;18.326;2024-01-11T02:38:44;9.77;;;4.03;;
21266;SDS011;10791;53.108;18.326;2024-01-11T02:43:47;7.37;;;3.47;;
21266;SDS011;10791;53.108;18.326;2024-01-11T02:48:51;12.53;;;3.93;;
21266;SDS011;10791;53.108;18.326;2024-01-11T02:53:55;4.87;;;2.47;;
21266;SDS011;10791;53.108;18.326;2024-01-11T02:58:59;9.60;;;5.40;;
21266;SDS011;10791;53.108;18.326;2024-01-11T03:04:02;6.30;;;3.23;;
21266;SDS011;10791;53.108;18.326;2024-01-11T03:09:05;9.03;;;4.40;;
21266;SDS011;10791;53.108;18.326;2024-01-11T03:14:09;9.87;;;4.13;;
21266;SDS011;10791;53.108;18.326;2024-01-11T03:19:12;7.87;;;3.70;;
21266;SDS011;10791;53.108;18.326;2024-01-11T03:24:15;8.07;;;3.47;;
21266;SDS011;10791;53.108;18.326;2024-01-11T03:29:18;13.13;;;4.83;;
21266;SDS011;10791;53.108;18.326;2024-01-11T03:34:22;6.07;;;2.70;;
21266;SDS011;10791;53.108;18.326;2024-01-11T03:39:25;10.30;;;3.50;;
21266;SDS011;10791;53.108;18.326;2024-01-11T03:44:28;8.90;;;3.93;;
21266;SDS011;10791;53.108;18.326;2024-01-11T03:49:31;11.70;;;3.13;;
21266;SDS011;10791;53.108;18.326;2024-01-11T03:54:35;8.20;;;1.87;;
21266;SDS011;10791;53.108;18.326;2024-01-11T03:59:40;9.70;;;3.87;;
21266;SDS011;10791;53.108;18.326;2024-01-11T04:04:43;7.30;;;3.13;;
21266;SDS011;10791;53.108;18.326;2024-01-11T04:09:46;10.73;;;3.43;;
21266;SDS011;10791;53.108;18.326;2024-01-11T04:14:49;5.00;;;2.33;;
21266;SDS011;10791;53.108;18.326;2024-01-11T04:19:52;8.23;;;3.67;;
21266;SDS011;10791;53.108;18.326;2024-01-11T04:24:55;9.53;;;3.63;;
21266;SDS011;10791;53.108;18.326;2024-01-11T04:29:58;6.03;;;3.10;;
21266;SDS011;10791;53.108;18.326;2024-01-11T04:35:02;13.80;;;4.90;;
21266;SDS011;10791;53.108;18.326;2024-01-11T04:40:06;9.53;;;5.00;;
21266;SDS011;10791;53.108;18.326;2024-01-11T04:45:10;6.53;;;3.63;;
21266;SDS011;10791;53.108;18.326;2024-01-11T04:50:13;7.47;;;3.33;;
21266;SDS011;10791;53.108;18.326;2024-01-11T04:55:17;10.23;;;3.23;;
21266;SDS011;10791;53.108;18.326;2024-01-11T05:00:20;8.23;;;3.27;;
21266;SDS011;10791;53.108;18.326;2024-01-11T05:05:23;9.47;;;3.93;;
21266;SDS011;10791;53.108;18.326;2024-01-11T05:10:27;5.77;;;2.97;;
21266;SDS011;10791;53.108;18.326;2024-01-11T05:15:31;9.57;;;4.50;;
21266;SDS011;10791;53.108;18.326;2024-01-11T05:20:34;6.80;;;3.43;;
21266;SDS011;10791;53.108;18.326;2024-01-11T05:25:37;9.97;;;2.93;;
21266;SDS011;10791;53.108;18.326;2024-01-11T05:30:41;6.20;;;3.47;;
21266;SDS011;10791;53.108;18.326;2024-01-11T05:35:44;6.83;;;3.90;;
21266;SDS011;10791;53.108;18.326;2024-01-11T05:40:48;6.07;;;3.63;;
21266;SDS011;10791;53.108;18.326;2024-01-11T05:45:51;7.60;;;2.77;;
21266;SDS011;10791;53.108;18.326;2024-01-11T05:50:55;13.07;;;3.80;;
21266;SDS011;10791;53.108;18.326;2024-01-11T05:55:58;7.77;;;3.60;;
21266;SDS011;10791;53.108;18.326;2024-01-11T06:01:01;7.50;;;4.40;;
21266;SDS011;10791;53.108;18.326;2024-01-11T06:06:05;8.63;;;3.90;;
21266;SDS011;10791;53.108;18.326;2024-01-11T06:11:09;5.53;;;2.90;;
21266;SDS011;10791;53.108;18.326;2024-01-11T06:16:12;9.20;;;4.37;;
21266;SDS011;10791;53.108;18.326;2024-01-11T06:21:16;6.13;;;3.90;;
21266;SDS011;10791;53.108;18.326;2024-01-11T06:26:19;9.07;;;4.57;;
21266;SDS011;10791;53.108;18.326;2024-01-11T06:31:22;5.47;;;3.03;;
21266;SDS011;10791;53.108;18.326;2024-01-11T06:36:27;7.63;;;3.93;;
21266;SDS011;10791;53.108;18.326;2024-01-11T06:41:30;4.97;;;3.20;;
21266;SDS011;10791;53.108;18.326;2024-01-11T06:46:34;6.13;;;3.03;;
21266;SDS011;10791;53.108;18.326;2024-01-11T06:51:38;10.60;;;4.27;;
21266;SDS011;10791;53.108;18.326;2024-01-11T06:56:42;6.43;;;4.17;;
21266;SDS011;10791;53.108;18.326;2024-01-11T07:01:46;9.13;;;4.00;;
21266;SDS011;10791;53.108;18.326;2024-01-11T07:06:50;10.07;;;3.60;;
21266;SDS011;10791;53.108;18.326;2024-01-11T07:11:53;6.67;;;3.80;;
21266;SDS011;10791;53.108;18.326;2024-01-11T07:16:57;7.33;;;3.17;;
21266;SDS011;10791;53.108;18.326;2024-01-11T07:22:01;9.80;;;3.03;;
21266;SDS011;10791;53.108;18.326;2024-01-11T07:27:05;10.57;;;3.93;;
21266;SDS011;10791;53.108;18.326;2024-01-11T07:32:10;11.53;;;4.67;;
21266;SDS011;10791;53.108;18.326;2024-01-11T07:37:13;8.63;;;4.33;;
21266;SDS011;10791;53.108;18.326;2024-01-11T07:42:17;8.17;;;3.90;;
21266;SDS011;10791;53.108;18.326;2024-01-11T07:47:22;6.53;;;4.47;;
21266;SDS011;10791;53.108;18.326;2024-01-11T07:52:25;9.27;;;3.93;;
21266;SDS011;10791;53.108;18.326;2024-01-11T07:57:28;7.90;;;4.10;;
21266;SDS011;10791;53.108;18.326;2024-01-11T08:02:33;9.53;;;4.57;;
21266;SDS011;10791;53.108;18.326;2024-01-11T08:07:36;11.67;;;4.90;;
21266;SDS011;10791;53.108;18.326;2024-01-11T08:12:40;9.13;;;3.93;;
21266;SDS011;10791;53.108;18.326;2024-01-11T08:17:46;7.93;;;4.77;;
21266;SDS011;10791;53.108;18.326;2024-01-11T08:22:51;7.40;;;4.27;;
21266;SDS011;10791;53.108;18.326;2024-01-11T08:27:55;9.23;;;4.27;;
21266;SDS011;10791;53.108;18.326;2024-01-11T08:32:58;12.23;;;5.53;;
21266;SDS011;10791;53.108;18.326;2024-01-11T08:38:02;11.23;;;4.87;;
21266;SDS011;10791;53.108;18.326;2024-01-11T08:43:06;11.83;;;5.43;;
21266;SDS011;10791;53.108;18.326;2024-01-11T08:48:09;6.63;;;3.83;;
21266;SDS011;10791;53.108;18.326;2024-01-11T08:53:14;10.23;;;4.20;;
21266;SDS011;10791;53.108;18.326;2024-01-11T08:58:18;9.53;;;5.13;;
21266;SDS011;10791;53.108;18.326;2024-01-11T09:03:22;12.33;;;4.10;;
21266;SDS011;10791;53.108;18.326;2024-01-11T09:08:26;12.43;;;5.80;;
21266;SDS011;10791;53.108;18.326;2024-01-11T09:13:29;8.60;;;4.10;;
21266;SDS011;10791;53.108;18.326;2024-01-11T09:18:33;9.87;;;4.87;;
21266;SDS011;10791;53.108;18.326;2024-01-11T09:23:37;9.17;;;4.97;;
21266;SDS011;10791;53.108;18.326;2024-01-11T09:28:42;11.00;;;4.63;;
21266;SDS011;10791;53.108;18.326;2024-01-11T09:33:45;12.27;;;4.40;;
21266;SDS011;10791;53.108;18.326;2024-01-11T09:38:48;7.03;;;3.73;;
21266;SDS011;10791;53.108;18.326;2024-01-11T09:43:53;8.47;;;4.10;;
21266;SDS011;10791;53.108;18.326;2024-01-11T09:49:00;7.30;;;3.87;;
21266;SDS011;10791;53.108;18.326;2024-01-11T09:54:09;5.43;;;3.40;;
21266;SDS011;10791;53.108;18.326;2024-01-11T09:59:13;8.20;;;4.50;;
21266;SDS011;10791;53.108;18.326;2024-01-11T10:04:18;9.47;;;4.23;;
21266;SDS011;10791;53.108;18.326;2024-01-11T10:09:21;7.63;;;3.53;;
21266;SDS011;10791;53.108;18.326;2024-01-11T10:14:25;6.43;;;4.40;;
21266;SDS011;10791;53.108;18.326;2024-01-11T10:19:29;7.30;;;3.83;;
21266;SDS011;10791;53.108;18.326;2024-01-11T10:24:34;5.73;;;2.97;;
21266;SDS011;10791;53.108;18.326;2024-01-11T10:29:38;6.63;;;3.70;;
21266;SDS011;10791;53.108;18.326;2024-01-11T10:34:42;6.27;;;3.37;;
21266;SDS011;10791;53.108;18.326;2024-01-11T10:39:46;5.20;;;2.63;;
21266;SDS011;10791;53.108;18.326;2024-01-11T10:44:54;6.53;;;2.57;;
21266;SDS011;10791;53.108;18.326;2024-01-11T10:50:00;8.00;;;3.87;;
21266;SDS011;10791;53.108;18.326;2024-01-11T10:55:05;8.17;;;2.90;;
21266;SDS011;10791;53.108;18.326;2024-01-11T11:00:11;5.00;;;3.67;;
21266;SDS011;10791;53.108;18.326;2024-01-11T11:05:15;8.17;;;3.40;;
21266;SDS011;10791;53.108;18.326;2024-01-11T11:10:23;5.60;;;2.63;;
21266;SDS011;10791;53.108;18.326;2024-01-11T11:15:28;8.37;;;2.77;;
21266;SDS011;10791;53.108;18.326;2024-01-11T11:20:32;10.00;;;5.43;;
21266;SDS011;10791;53.108;18.326;2024-01-11T11:25:36;6.33;;;3.23;;
21266;SDS011;10791;53.108;18.326;2024-01-11T11:30:42;5.47;;;3.80;;
21266;SDS011;10791;53.108;18.326;2024-01-11T11:35:47;7.13;;;4.10;;
21266;SDS011;10791;53.108;18.326;2024-01-11T11:40:52;6.50;;;4.60;;
21266;SDS011;10791;53.108;18.326;2024-01-11T11:45:57;4.97;;;3.03;;
21266;SDS011;10791;53.108;18.326;2024-01-11T11:51:09;5.27;;;2.87;;
21266;SDS011;10791;53.108;18.326;2024-01-11T11:56:22;8.63;;;3.43;;
21266;SDS011;10791;53.108;18.326;2024-01-11T12:01:26;11.23;;;4.70;;
21266;SDS011;10791;53.108;18.326;2024-01-11T12:06:30;7.00;;;3.20;;
21266;SDS011;10791;53.108;18.326;2024-01-11T12:11:33;7.57;;;3.80;;
21266;SDS011;10791;53.108;18.326;2024-01-11T12:16:36;7.63;;;3.83;;
21266;SDS011;10791;53.108;18.326;2024-01-11T12:21:39;5.07;;;3.03;;
21266;SDS011;10791;53.108;18.326;2024-01-11T12:26:43;6.13;;;2.97;;
21266;SDS011;10791;53.108;18.326;2024-01-11T12:31:47;5.53;;;2.83;;
21266;SDS011;10791;53.108;18.326;2024-01-11T12:36:55;6.97;;;3.30;;
21266;SDS011;10791;53.108;18.326;2024-01-11T12:42:03;5.57;;;2.43;;
21266;SDS011;10791;53.108;18.326;2024-01-11T12:47:07;4.77;;;2.47;;
21266;SDS011;10791;53.108;18.326;2024-01-11T12:52:17;4.13;;;2.60;;
21266;SDS011;10791;53.108;18.326;2024-01-11T12:57:22;7.67;;;2.97;;
21266;SDS011;10791;53.108;18.326;2024-01-11T13:02:28;6.20;;;2.90;;
21266;SDS011;10791;53.108;18.326;2024-01-11T13:07:33;7.83;;;3.17;;
21266;SDS011;10791;53.108;18.326;2024-01-11T13:12:39;6.63;;;2.53;;
21266;SDS011;10791;53.108;18.326;2024-01-11T13:17:42;5.10;;;2.17;;
21266;SDS011;10791;53.108;18.326;2024-01-11T13:22:46;3.83;;;2.43;;
21266;SDS011;10791;53.108;18.326;2024-01-11T13:27:50;3.43;;;2.10;;
21266;SDS011;10791;53.108;18.326;2024-01-11T13:32:56;4.80;;;2.80;;
21266;SDS011;10791;53.108;18.326;2024-01-11T13:37:59;5.57;;;2.60;;
21266;SDS011;10791;53.108;18.326;2024-01-11T13:43:03;4.77;;;2.57;;
21266;SDS011;10791;53.108;18.326;2024-01-11T13:48:07;6.67;;;3.60;;
21266;SDS011;10791;53.108;18.326;2024-01-11T13:53:10;5.17;;;3.20;;
21266;SDS011;10791;53.108;18.326;2024-01-11T13:58:14;2.27;;;1.77;;
21266;SDS011;10791;53.108;18.326;2024-01-11T14:03:18;3.60;;;1.93;;
21266;SDS011;10791;53.108;18.326;2024-01-11T14:08:21;4.70;;;2.67;;
21266;SDS011;10791;53.108;18.326;2024-01-11T14:13:25;4.47;;;1.83;;
21266;SDS011;10791;53.108;18.326;2024-01-11T14:18:29;3.13;;;1.97;;
21266;SDS011;10791;53.108;18.326;2024-01-11T14:23:33;4.80;;;1.93;;
21266;SDS011;10791;53.108;18.326;2024-01-11T14:28:37;5.30;;;2.57;;
21266;SDS011;10791;53.108;18.326;2024-01-11T14:33:45;7.70;;;2.80;;
21266;SDS011;10791;53.108;18.326;2024-01-11T14:38:49;4.33;;;1.57;;
21266;SDS011;10791;53.108;18.326;2024-01-11T14:43:53;3.97;;;2.13;;
21266;SDS011;10791;53.108;18.326;2024-01-11T14:48:58;5.17;;;3.07;;
21266;SDS011;10791;53.108;18.326;2024-01-11T14:54:03;6.40;;;2.77;;
21266;SDS011;10791;53.108;18.326;2024-01-11T14:59:07;5.07;;;2.60;;
21266;SDS011;10791;53.108;18.326;2024-01-11T15:04:10;5.90;;;2.30;;
21266;SDS011;10791;53.108;18.326;2024-01-11T15:09:15;5.87;;;1.70;;
21266;SDS011;10791;53.108;18.326;2024-01-11T15:14:20;6.30;;;2.70;;
21266;SDS011;10791;53.108;18.326;2024-01-11T15:19:23;12.47;;;2.70;;
21266;SDS011;10791;53.108;18.326;2024-01-11T15:24:27;5.07;;;2.60;;
21266;SDS011;10791;53.108;18.326;2024-01-11T15:29:31;3.80;;;2.23;;
21266;SDS011;10791;53.108;18.326;2024-01-11T15:34:34;3.20;;;1.90;;
21266;SDS011;10791;53.108;18.326;2024-01-11T15:39:38;10.43;;;2.20;;
21266;SDS011;10791;53.108;18.326;2024-01-11T15:44:42;4.90;;;2.60;;
21266;SDS011;10791;53.108;18.326;2024-01-11T15:49:45;5.70;;;2.03;;
21266;SDS011;10791;53.108;18.326;2024-01-11T15:54:48;4.33;;;1.70;;
21266;SDS011;10791;53.108;18.326;2024-01-11T15:59:52;5.27;;;2.40;;
21266;SDS011;10791;53.108;18.326;2024-01-11T16:04:55;4.80;;;1.93;;
21266;SDS011;10791;53.108;18.326;2024-01-11T16:09:58;5.10;;;2.80;;
21266;SDS011;10791;53.108;18.326;2024-01-11T16:15:02;6.13;;;1.90;;
21266;SDS011;10791;53.108;18.326;2024-01-11T16:20:06;2.27;;;1.50;;
21266;SDS011;10791;53.108;18.326;2024-01-11T16:25:11;6.20;;;1.87;;
21266;SDS011;10791;53.108;18.326;2024-01-11T16:30:16;2.47;;;1.60;;
21266;SDS011;10791;53.108;18.326;2024-01-11T16:35:20;2.87;;;1.53;;
21266;SDS011;10791;53.108;18.326;2024-01-11T16:40:26;4.77;;;1.87;;
21266;SDS011;10791;53.108;18.326;2024-01-11T16:45:30;3.73;;;1.87;;
21266;SDS011;10791;53.108;18.326;2024-01-11T16:50:38;4.40;;;1.97;;
21266;SDS011;10791;53.108;18.326;2024-01-11T16:55:45;4.40;;;2.33;;
21266;SDS011;10791;53.108;18.326;2024-01-11T17:00:49;5.20;;;2.93;;
21266;SDS011;10791;53.108;18.326;2024-01-11T17:05:53;6.47;;;2.73;;
21266;SDS011;10791;53.108;18.326;2024-01-11T17:10:57;4.63;;;2.03;;
21266;SDS011;10791;53.108;18.326;2024-01-11T17:16:01;4.53;;;1.40;;
21266;SDS011;10791;53.108;18.326;2024-01-11T17:21:05;4.10;;;1.90;;
21266;SDS011;10791;53.108;18.326;2024-01-11T17:26:10;3.20;;;1.67;;
21266;SDS011;10791;53.108;18.326;2024-01-11T17:31:14;5.33;;;3.23;;
21266;SDS011;10791;53.108;18.326;2024-01-11T17:36:18;3.03;;;1.87;;
21266;SDS011;10791;53.108;18.326;2024-01-11T17:41:23;6.43;;;2.50;;
21266;SDS011;10791;53.108;18.326;2024-01-11T17:46:27;7.63;;;2.93;;
21266;SDS011;10791;53.108;18.326;2024-01-11T17:51:31;5.23;;;1.97;;
21266;SDS011;10791;53.108;18.326;2024-01-11T17:56:38;4.83;;;1.67;;
21266;SDS011;10791;53.108;18.326;2024-01-11T18:01:43;2.20;;;1.43;;
21266;SDS011;10791;53.108;18.326;2024-01-11T18:06:47;3.30;;;1.40;;
21266;SDS011;10791;53.108;18.326;2024-01-11T18:11:51;5.80;;;2.07;;
21266;SDS011;10791;53.108;18.326;2024-01-11T18:16:55;7.37;;;1.93;;
21266;SDS011;10791;53.108;18.326;2024-01-11T18:21:59;4.40;;;2.50;;
21266;SDS011;10791;53.108;18.326;2024-01-11T18:27:02;4.87;;;1.60;;
21266;SDS011;10791;53.108;18.326;2024-01-11T18:32:10;5.13;;;2.10;;
21266;SDS011;10791;53.108;18.326;2024-01-11T18:37:15;4.77;;;1.90;;
21266;SDS011;10791;53.108;18.326;2024-01-11T18:42:19;2.80;;;1.20;;
21266;SDS011;10791;53.108;18.326;2024-01-11T18:47:24;4.53;;;1.37;;
21266;SDS011;10791;53.108;18.326;2024-01-11T18:52:28;6.77;;;2.10;;
21266;SDS011;10791;53.108;18.326;2024-01-11T18:57:33;10.03;;;1.43;;
21266;SDS011;10791;53.108;18.326;2024-01-11T19:02:38;5.53;;;2.20;;
21266;SDS011;10791;53.108;18.326;2024-01-11T19:07:43;6.57;;;1.83;;
21266;SDS011;10791;53.108;18.326;2024-01-11T19:12:47;2.43;;;1.23;;
21266;SDS011;10791;53.108;18.326;2024-01-11T19:17:52;4.77;;;2.03;;
21266;SDS011;10791;53.108;18.326;2024-01-11T19:22:57;3.50;;;1.53;;
21266;SDS011;10791;53.108;18.326;2024-01-11T19:28:04;3.40;;;1.30;;
21266;SDS011;10791;53.108;18.326;2024-01-11T19:33:11;3.63;;;1.53;;
21266;SDS011;10791;53.108;18.326;2024-01-11T19:38:17;1.93;;;1.10;;
21266;SDS011;10791;53.108;18.326;2024-01-11T19:43:23;3.20;;;1.87;;
21266;SDS011;10791;53.108;18.326;2024-01-11T19:48:28;3.50;;;1.73;;
21266;SDS011;10791;53.108;18.326;2024-01-11T19:53:33;2.53;;;1.37;;
21266;SDS011;10791;53.108;18.326;2024-01-11T19:58:37;5.47;;;1.97;;
21266;SDS011;10791;53.108;18.326;2024-01-11T20:03:43;5.83;;;2.03;;
21266;SDS011;10791;53.108;18.326;2024-01-11T20:08:48;8.17;;;2.60;;
21266;SDS011;10791;53.108;18.326;2024-01-11T20:13:53;6.50;;;1.60;;
21266;SDS011;10791;53.108;18.326;2024-01-11T20:18:59;9.00;;;2.43;;
21266;SDS011;10791;53.108;18.326;2024-01-11T20:24:04;3.83;;;1.87;;
21266;SDS011;10791;53.108;18.326;2024-01-11T20:29:09;2.50;;;1.23;;
21266;SDS011;10791;53.108;18.326;2024-01-11T20:34:14;3.13;;;0.97;;
21266;SDS011;10791;53.108;18.326;2024-01-11T20:39:23;2.20;;;1.10;;
21266;SDS011;10791;53.108;18.326;2024-01-11T20:44:29;3.33;;;1.57;;
21266;SDS011;10791;53.108;18.326;2024-01-11T20:49:36;3.50;;;2.13;;
21266;SDS011;10791;53.108;18.326;2024-01-11T20:54:42;1.60;;;0.73;;
21266;SDS011;10791;53.108;18.326;2024-01-11T20:59:49;3.30;;;1.30;;
21266;SDS011;10791;53.108;18.326;2024-01-11T21:04:54;1.10;;;0.93;;
21266;SDS011;10791;53.108;18.326;2024-01-11T21:09:58;1.67;;;1.00;;
21266;SDS011;10791;53.108;18.326;2024-01-11T21:15:03;3.90;;;1.50;;
21266;SDS011;10791;53.108;18.326;2024-01-11T21:20:09;1.33;;;0.90;;
21266;SDS011;10791;53.108;18.326;2024-01-11T21:25:14;2.43;;;1.40;;
21266;SDS011;10791;53.108;18.326;2024-01-11T21:30:20;3.37;;;1.50;;
21266;SDS011;10791;53.108;18.326;2024-01-11T21:35:24;2.60;;;1.83;;
21266;SDS011;10791;53.108;18.326;2024-01-11T21:40:28;3.27;;;1.33;;
21266;SDS011;10791;53.108;18.326;2024-01-11T21:45:33;2.37;;;1.17;;
21266;SDS011;10791;53.108;18.326;2024-01-11T21:50:37;3.57;;;1.93;;
21266;SDS011;10791;53.108;18.326;2024-01-11T21:55:41;4.10;;;1.57;;
21266;SDS011;10791;53.108;18.326;2024-01-11T22:00:45;5.67;;;2.27;;
21266;SDS011;10791;53.108;18.326;2024-01-11T22:05:48;8.47;;;2.17;;
21266;SDS011;10791;53.108;18.326;2024-01-11T22:10:53;3.40;;;1.80;;
21266;SDS011;10791;53.108;18.326;2024-01-11T22:15:56;5.37;;;1.27;;
21266;SDS011;10791;53.108;18.326;2024-01-11T22:21:01;9.70;;;2.13;;
21266;SDS011;10791;53.108;18.326;2024-01-11T22:26:07;2.70;;;1.50;;
21266;SDS011;10791;53.108;18.326;2024-01-11T22:31:10;5.60;;;1.67;;
21266;SDS011;10791;53.108;18.326;2024-01-11T22:36:14;2.40;;;1.37;;
21266;SDS011;10791;53.108;18.326;2024-01-11T22:41:17;5.30;;;1.10;;
21266;SDS011;10791;53.108;18.326;2024-01-11T22:46:20;3.20;;;1.10;;
21266;SDS011;10791;53.108;18.326;2024-01-11T22:51:24;3.17;;;1.17;;
21266;SDS011;10791;53.108;18.326;2024-01-11T22:56:27;6.17;;;1.60;;
21266;SDS011;10791;53.108;18.326;2024-01-11T23:01:40;5.50;;;1.83;;
21266;SDS011;10791;53.108;18.326;2024-01-11T23:06:44;2.37;;;0.80;;
21266;SDS011;10791;53.108;18.326;2024-01-11T23:11:48;1.40;;;0.83;;
21266;SDS011;10791;53.108;18.326;2024-01-11T23:16:52;2.40;;;1.00;;
21266;SDS011;10791;53.108;18.326;2024-01-11T23:21:57;1.23;;;0.70;;
21266;SDS011;10791;53.108;18.326;2024-01-11T23:27:00;3.97;;;0.83;;
21266;SDS011;10791;53.108;18.326;2024-01-11T23:32:05;2.20;;;1.27;;
21266;SDS011;10791;53.108;18.326;2024-01-11T23:37:09;1.27;;;1.17;;
21266;SDS011;10791;53.108;18.326;2024-01-11T23:42:13;3.07;;;0.93;;
21266;SDS011;10791;53.108;18.326;2024-01-11T23:47:16;1.03;;;0.73;;
21266;SDS011;10791;53.108;18.326;2024-01-11T23:52:19;4.40;;;0.83;;
21266;SDS011;10791;53.108;18.326;2024-01-11T23:57:23;1.67;;;1.03;;
